sensor_id;sensor_type;location;lat;lon;timestamp;pressure;altitude;pressure_sealevel;temperature;humidity
54562;BME280;69047;53.358;-1.486;2023-09-30T00:00:45;101347.94;;;13.46;67.80
54562;BME280;69047;53.358;-1.486;2023-09-30T00:03:10;101347.44;;;13.49;67.71
54562;BME280;69047;53.358;-1.486;2023-09-30T00:05:37;101350.59;;;13.41;67.93
54562;BME280;69047;53.358;-1.486;2023-09-30T00:08:06;101351.97;;;13.43;67.76
54562;BME280;69047;53.358;-1.486;2023-09-30T00:10:32;101358.88;;;13.51;67.79
54562;BME280;69047;53.358;-1.486;2023-09-30T00:12:57;101342.03;;;13.54;68.21
54562;BME280;69047;53.358;-1.486;2023-09-30T00:15:24;101348.75;;;13.46;68.01
54562;BME280;69047;53.358;-1.486;2023-09-30T00:17:49;101357.81;;;13.52;68.11
54562;BME280;69047;53.358;-1.486;2023-09-30T00:20:15;101356.31;;;13.44;68.16
54562;BME280;69047;53.358;-1.486;2023-09-30T00:22:41;101337.59;;;13.48;68.01
54562;BME280;69047;53.358;-1.486;2023-09-30T00:25:07;101340.69;;;13.56;68.32
54562;BME280;69047;53.358;-1.486;2023-09-30T00:27:32;101342.88;;;13.54;67.94
54562;BME280;69047;53.358;-1.486;2023-09-30T00:29:58;101348.88;;;13.56;67.80
54562;BME280;69047;53.358;-1.486;2023-09-30T00:32:23;101351.03;;;13.54;67.99
54562;BME280;69047;53.358;-1.486;2023-09-30T00:34:48;101355.47;;;13.60;67.83
54562;BME280;69047;53.358;-1.486;2023-09-30T00:37:14;101365.69;;;13.53;68.06
54562;BME280;69047;53.358;-1.486;2023-09-30T00:39:39;101353.44;;;13.51;67.73
54562;BME280;69047;53.358;-1.486;2023-09-30T00:42:04;101363.88;;;13.59;67.91
54562;BME280;69047;53.358;-1.486;2023-09-30T00:44:30;101365.28;;;13.61;68.08
54562;BME280;69047;53.358;-1.486;2023-09-30T00:46:56;101380.66;;;13.72;67.65
54562;BME280;69047;53.358;-1.486;2023-09-30T00:49:22;101385.94;;;13.62;67.83
54562;BME280;69047;53.358;-1.486;2023-09-30T00:51:48;101378.63;;;13.63;68.19
54562;BME280;69047;53.358;-1.486;2023-09-30T00:54:15;101385.38;;;13.60;68.72
54562;BME280;69047;53.358;-1.486;2023-09-30T00:56:44;101384.06;;;13.63;68.41
54562;BME280;69047;53.358;-1.486;2023-09-30T00:59:13;101385.66;;;13.59;68.20
54562;BME280;69047;53.358;-1.486;2023-09-30T01:01:41;101377.41;;;13.54;68.36
54562;BME280;69047;53.358;-1.486;2023-09-30T01:04:06;101379.69;;;13.40;68.51
54562;BME280;69047;53.358;-1.486;2023-09-30T01:06:32;101374.16;;;13.35;68.42
54562;BME280;69047;53.358;-1.486;2023-09-30T01:08:57;101376.25;;;13.28;68.31
54562;BME280;69047;53.358;-1.486;2023-09-30T01:11:24;101376.44;;;13.21;68.18
54562;BME280;69047;53.358;-1.486;2023-09-30T01:13:49;101367.31;;;13.11;69.05
54562;BME280;69047;53.358;-1.486;2023-09-30T01:16:15;101370.75;;;13.06;69.30
54562;BME280;69047;53.358;-1.486;2023-09-30T01:18:41;101376.34;;;13.00;68.78
54562;BME280;69047;53.358;-1.486;2023-09-30T01:21:08;101369.69;;;12.91;69.55
54562;BME280;69047;53.358;-1.486;2023-09-30T01:23:35;101366.91;;;12.86;69.46
54562;BME280;69047;53.358;-1.486;2023-09-30T01:26:19;101357.50;;;12.93;70.00
54562;BME280;69047;53.358;-1.486;2023-09-30T01:28:44;101359.00;;;12.84;69.95
54562;BME280;69047;53.358;-1.486;2023-09-30T01:31:13;101349.38;;;12.76;70.23
54562;BME280;69047;53.358;-1.486;2023-09-30T01:33:39;101358.41;;;12.49;70.98
54562;BME280;69047;53.358;-1.486;2023-09-30T01:36:04;101359.66;;;12.58;71.32
54562;BME280;69047;53.358;-1.486;2023-09-30T01:38:30;101351.59;;;12.80;71.13
54562;BME280;69047;53.358;-1.486;2023-09-30T01:40:55;101349.63;;;12.58;71.26
54562;BME280;69047;53.358;-1.486;2023-09-30T01:43:21;101340.16;;;12.77;70.38
54562;BME280;69047;53.358;-1.486;2023-09-30T01:45:46;101348.31;;;12.77;70.88
54562;BME280;69047;53.358;-1.486;2023-09-30T01:48:11;101345.69;;;12.66;71.14
54562;BME280;69047;53.358;-1.486;2023-09-30T01:50:38;101348.97;;;12.51;71.97
54562;BME280;69047;53.358;-1.486;2023-09-30T01:53:04;101359.34;;;12.54;71.98
54562;BME280;69047;53.358;-1.486;2023-09-30T01:55:31;101354.22;;;12.58;71.62
54562;BME280;69047;53.358;-1.486;2023-09-30T01:57:57;101351.34;;;12.64;71.74
54562;BME280;69047;53.358;-1.486;2023-09-30T02:00:22;101358.75;;;12.52;71.72
54562;BME280;69047;53.358;-1.486;2023-09-30T02:02:48;101362.38;;;12.41;72.54
54562;BME280;69047;53.358;-1.486;2023-09-30T02:05:13;101351.25;;;11.98;73.71
54562;BME280;69047;53.358;-1.486;2023-09-30T02:07:38;101340.81;;;11.90;74.40
54562;BME280;69047;53.358;-1.486;2023-09-30T02:10:04;101349.53;;;11.92;74.31
54562;BME280;69047;53.358;-1.486;2023-09-30T02:12:30;101339.75;;;12.36;72.42
54562;BME280;69047;53.358;-1.486;2023-09-30T02:14:55;101348.78;;;12.41;72.37
54562;BME280;69047;53.358;-1.486;2023-09-30T02:17:21;101341.81;;;12.45;72.22
54562;BME280;69047;53.358;-1.486;2023-09-30T02:19:47;101346.50;;;12.50;71.83
54562;BME280;69047;53.358;-1.486;2023-09-30T02:22:13;101350.75;;;12.46;72.21
54562;BME280;69047;53.358;-1.486;2023-09-30T02:24:38;101340.81;;;12.51;71.89
54562;BME280;69047;53.358;-1.486;2023-09-30T02:27:05;101344.03;;;12.48;72.02
54562;BME280;69047;53.358;-1.486;2023-09-30T02:29:31;101338.84;;;12.47;72.04
54562;BME280;69047;53.358;-1.486;2023-09-30T02:31:56;101328.47;;;12.44;71.89
54562;BME280;69047;53.358;-1.486;2023-09-30T02:34:21;101330.00;;;12.40;72.57
54562;BME280;69047;53.358;-1.486;2023-09-30T02:36:47;101330.84;;;12.40;72.59
54562;BME280;69047;53.358;-1.486;2023-09-30T02:39:12;101336.75;;;12.37;72.42
54562;BME280;69047;53.358;-1.486;2023-09-30T02:41:41;101338.56;;;12.32;73.00
54562;BME280;69047;53.358;-1.486;2023-09-30T02:44:07;101340.72;;;12.30;73.00
54562;BME280;69047;53.358;-1.486;2023-09-30T02:46:32;101341.78;;;12.12;73.69
54562;BME280;69047;53.358;-1.486;2023-09-30T02:48:58;101348.19;;;12.06;73.89
54562;BME280;69047;53.358;-1.486;2023-09-30T02:51:23;101359.88;;;12.06;74.20
54562;BME280;69047;53.358;-1.486;2023-09-30T02:53:50;101354.25;;;12.13;73.64
54562;BME280;69047;53.358;-1.486;2023-09-30T02:56:15;101342.81;;;12.11;73.53
54562;BME280;69047;53.358;-1.486;2023-09-30T02:58:41;101342.41;;;12.02;74.09
54562;BME280;69047;53.358;-1.486;2023-09-30T03:01:06;101353.53;;;12.17;73.83
54562;BME280;69047;53.358;-1.486;2023-09-30T03:03:32;101355.22;;;12.07;73.96
54562;BME280;69047;53.358;-1.486;2023-09-30T03:05:59;101352.44;;;12.02;74.10
54562;BME280;69047;53.358;-1.486;2023-09-30T03:08:25;101351.47;;;12.08;73.67
54562;BME280;69047;53.358;-1.486;2023-09-30T03:10:51;101358.78;;;12.07;73.90
54562;BME280;69047;53.358;-1.486;2023-09-30T03:13:18;101359.53;;;12.03;73.87
54562;BME280;69047;53.358;-1.486;2023-09-30T03:15:44;101357.28;;;12.00;73.88
54562;BME280;69047;53.358;-1.486;2023-09-30T03:18:09;101353.06;;;11.92;73.79
54562;BME280;69047;53.358;-1.486;2023-09-30T03:20:35;101357.91;;;11.90;74.42
54562;BME280;69047;53.358;-1.486;2023-09-30T03:23:05;101370.66;;;11.90;74.52
54562;BME280;69047;53.358;-1.486;2023-09-30T03:25:30;101354.84;;;11.87;74.86
54562;BME280;69047;53.358;-1.486;2023-09-30T03:27:56;101350.16;;;11.82;74.81
54562;BME280;69047;53.358;-1.486;2023-09-30T03:30:22;101362.34;;;11.80;75.08
54562;BME280;69047;53.358;-1.486;2023-09-30T03:32:47;101356.91;;;11.80;75.14
54562;BME280;69047;53.358;-1.486;2023-09-30T03:35:13;101362.50;;;11.90;75.24
54562;BME280;69047;53.358;-1.486;2023-09-30T03:37:46;101359.66;;;11.96;74.75
54562;BME280;69047;53.358;-1.486;2023-09-30T03:40:13;101360.06;;;11.88;74.87
54562;BME280;69047;53.358;-1.486;2023-09-30T03:42:46;101354.28;;;11.85;75.05
54562;BME280;69047;53.358;-1.486;2023-09-30T03:45:14;101358.41;;;11.87;74.94
54562;BME280;69047;53.358;-1.486;2023-09-30T03:47:41;101357.09;;;11.90;74.81
54562;BME280;69047;53.358;-1.486;2023-09-30T03:50:07;101359.66;;;11.96;74.71
54562;BME280;69047;53.358;-1.486;2023-09-30T03:52:40;101360.06;;;11.88;74.87
54562;BME280;69047;53.358;-1.486;2023-09-30T03:55:09;101349.13;;;11.72;75.35
54562;BME280;69047;53.358;-1.486;2023-09-30T03:57:37;101343.34;;;11.80;75.06
54562;BME280;69047;53.358;-1.486;2023-09-30T04:00:03;101333.78;;;11.77;75.29
54562;BME280;69047;53.358;-1.486;2023-09-30T04:02:32;101344.13;;;11.80;74.88
54562;BME280;69047;53.358;-1.486;2023-09-30T04:04:57;101351.63;;;11.73;75.32
54562;BME280;69047;53.358;-1.486;2023-09-30T04:07:24;101357.28;;;11.60;75.95
54562;BME280;69047;53.358;-1.486;2023-09-30T04:09:54;101365.50;;;11.65;75.70
54562;BME280;69047;53.358;-1.486;2023-09-30T04:12:19;101376.53;;;11.58;76.05
54562;BME280;69047;53.358;-1.486;2023-09-30T04:14:44;101380.63;;;11.73;75.64
54562;BME280;69047;53.358;-1.486;2023-09-30T04:17:10;101378.97;;;11.72;75.85
54562;BME280;69047;53.358;-1.486;2023-09-30T04:19:35;101375.22;;;11.73;75.67
54562;BME280;69047;53.358;-1.486;2023-09-30T04:22:01;101363.41;;;11.79;75.63
54562;BME280;69047;53.358;-1.486;2023-09-30T04:24:26;101369.00;;;11.89;75.32
54562;BME280;69047;53.358;-1.486;2023-09-30T04:26:53;101368.06;;;11.83;75.16
54562;BME280;69047;53.358;-1.486;2023-09-30T04:29:22;101372.44;;;11.84;75.20
54562;BME280;69047;53.358;-1.486;2023-09-30T04:31:48;101373.16;;;11.68;75.98
54562;BME280;69047;53.358;-1.486;2023-09-30T04:34:14;101365.28;;;11.66;75.93
54562;BME280;69047;53.358;-1.486;2023-09-30T04:36:40;101370.75;;;11.55;76.46
54562;BME280;69047;53.358;-1.486;2023-09-30T04:39:05;101378.84;;;11.66;75.99
54562;BME280;69047;53.358;-1.486;2023-09-30T04:41:31;101374.63;;;11.71;74.95
54562;BME280;69047;53.358;-1.486;2023-09-30T04:43:56;101367.06;;;11.61;75.90
54562;BME280;69047;53.358;-1.486;2023-09-30T04:46:22;101363.53;;;11.72;75.54
54562;BME280;69047;53.358;-1.486;2023-09-30T04:48:49;101373.31;;;11.73;74.93
54562;BME280;69047;53.358;-1.486;2023-09-30T04:51:17;101379.09;;;11.77;74.61
54562;BME280;69047;53.358;-1.486;2023-09-30T04:53:44;101378.97;;;11.72;75.33
54562;BME280;69047;53.358;-1.486;2023-09-30T04:56:12;101380.63;;;11.73;75.53
54562;BME280;69047;53.358;-1.486;2023-09-30T04:58:37;101372.09;;;11.81;75.03
54562;BME280;69047;53.358;-1.486;2023-09-30T05:01:02;101360.41;;;11.80;74.88
54562;BME280;69047;53.358;-1.486;2023-09-30T05:03:28;101351.38;;;11.75;75.40
54562;BME280;69047;53.358;-1.486;2023-09-30T05:05:53;101347.19;;;11.84;75.38
54562;BME280;69047;53.358;-1.486;2023-09-30T05:08:21;101358.75;;;11.91;74.54
54562;BME280;69047;53.358;-1.486;2023-09-30T05:10:46;101362.13;;;11.98;74.23
54562;BME280;69047;53.358;-1.486;2023-09-30T05:13:13;101366.97;;;11.96;74.42
54562;BME280;69047;53.358;-1.486;2023-09-30T05:15:39;101361.31;;;11.97;74.89
54562;BME280;69047;53.358;-1.486;2023-09-30T05:18:04;101373.06;;;11.75;75.13
54562;BME280;69047;53.358;-1.486;2023-09-30T05:20:30;101364.50;;;11.54;75.74
54562;BME280;69047;53.358;-1.486;2023-09-30T05:22:55;101368.16;;;11.48;76.26
54562;BME280;69047;53.358;-1.486;2023-09-30T05:25:21;101382.91;;;11.52;75.92
54562;BME280;69047;53.358;-1.486;2023-09-30T05:27:51;101375.25;;;11.26;76.81
54562;BME280;69047;53.358;-1.486;2023-09-30T05:30:16;101396.16;;;10.91;77.55
54562;BME280;69047;53.358;-1.486;2023-09-30T05:32:41;101399.44;;;11.39;76.25
54562;BME280;69047;53.358;-1.486;2023-09-30T05:35:07;101394.56;;;11.53;75.26
54562;BME280;69047;53.358;-1.486;2023-09-30T05:37:41;101394.84;;;11.28;75.81
54562;BME280;69047;53.358;-1.486;2023-09-30T05:40:08;101390.84;;;11.31;75.43
54562;BME280;69047;53.358;-1.486;2023-09-30T05:42:53;101395.44;;;11.07;75.84
54562;BME280;69047;53.358;-1.486;2023-09-30T05:45:23;101378.84;;;10.80;77.60
54562;BME280;69047;53.358;-1.486;2023-09-30T05:47:49;101374.47;;;10.91;77.35
54562;BME280;69047;53.358;-1.486;2023-09-30T05:50:17;101368.22;;;11.14;75.73
54562;BME280;69047;53.358;-1.486;2023-09-30T05:52:45;101373.78;;;11.07;76.03
54562;BME280;69047;53.358;-1.486;2023-09-30T05:55:11;101376.47;;;11.19;75.54
54562;BME280;69047;53.358;-1.486;2023-09-30T05:57:36;101369.16;;;11.19;75.11
54562;BME280;69047;53.358;-1.486;2023-09-30T06:00:07;101366.31;;;11.02;75.71
54562;BME280;69047;53.358;-1.486;2023-09-30T06:02:39;101365.75;;;11.12;75.43
54562;BME280;69047;53.358;-1.486;2023-09-30T06:05:05;101370.69;;;11.15;75.07
54562;BME280;69047;53.358;-1.486;2023-09-30T06:07:30;101363.59;;;11.14;74.83
54562;BME280;69047;53.358;-1.486;2023-09-30T06:09:56;101366.22;;;11.09;74.85
54562;BME280;69047;53.358;-1.486;2023-09-30T06:12:21;101359.38;;;11.06;75.10
54562;BME280;69047;53.358;-1.486;2023-09-30T06:14:46;101366.47;;;10.96;75.73
54562;BME280;69047;53.358;-1.486;2023-09-30T06:17:12;101365.66;;;10.84;76.19
54562;BME280;69047;53.358;-1.486;2023-09-30T06:19:37;101370.22;;;10.83;76.10
54562;BME280;69047;53.358;-1.486;2023-09-30T06:22:03;101374.72;;;10.89;76.10
54562;BME280;69047;53.358;-1.486;2023-09-30T06:24:28;101382.94;;;10.94;75.50
54562;BME280;69047;53.358;-1.486;2023-09-30T06:26:53;101388.16;;;10.96;75.73
54562;BME280;69047;53.358;-1.486;2023-09-30T06:29:19;101403.69;;;10.89;76.57
54562;BME280;69047;53.358;-1.486;2023-09-30T06:31:44;101401.91;;;10.83;76.57
54562;BME280;69047;53.358;-1.486;2023-09-30T06:34:10;101400.88;;;10.95;76.38
54562;BME280;69047;53.358;-1.486;2023-09-30T06:36:36;101402.88;;;11.00;76.48
54562;BME280;69047;53.358;-1.486;2023-09-30T06:39:03;101414.41;;;10.95;76.49
54562;BME280;69047;53.358;-1.486;2023-09-30T06:41:31;101409.22;;;11.05;76.46
54562;BME280;69047;53.358;-1.486;2023-09-30T06:43:56;101416.41;;;11.23;75.78
54562;BME280;69047;53.358;-1.486;2023-09-30T06:46:22;101421.00;;;11.34;75.33
54562;BME280;69047;53.358;-1.486;2023-09-30T06:48:49;101428.44;;;11.39;75.41
54562;BME280;69047;53.358;-1.486;2023-09-30T06:51:17;101435.97;;;11.37;75.48
54562;BME280;69047;53.358;-1.486;2023-09-30T06:53:43;101446.34;;;11.40;75.57
54562;BME280;69047;53.358;-1.486;2023-09-30T06:56:08;101449.53;;;11.48;75.42
54562;BME280;69047;53.358;-1.486;2023-09-30T06:58:33;101447.28;;;11.57;75.08
54562;BME280;69047;53.358;-1.486;2023-09-30T07:00:59;101448.56;;;11.66;75.08
54562;BME280;69047;53.358;-1.486;2023-09-30T07:03:24;101447.41;;;11.74;75.12
54562;BME280;69047;53.358;-1.486;2023-09-30T07:05:50;101446.19;;;11.81;74.84
54562;BME280;69047;53.358;-1.486;2023-09-30T07:08:18;101435.59;;;11.80;74.57
54562;BME280;69047;53.358;-1.486;2023-09-30T07:10:44;101442.75;;;11.86;74.55
54562;BME280;69047;53.358;-1.486;2023-09-30T07:13:11;101448.06;;;11.92;74.52
54562;BME280;69047;53.358;-1.486;2023-09-30T07:15:37;101440.50;;;11.94;74.33
54562;BME280;69047;53.358;-1.486;2023-09-30T07:18:03;101431.25;;;12.07;74.29
54562;BME280;69047;53.358;-1.486;2023-09-30T07:20:28;101435.63;;;12.08;74.32
54562;BME280;69047;53.358;-1.486;2023-09-30T07:22:58;101438.78;;;12.16;74.45
54562;BME280;69047;53.358;-1.486;2023-09-30T07:25:23;101432.72;;;12.26;74.31
54562;BME280;69047;53.358;-1.486;2023-09-30T07:27:49;101421.72;;;12.33;74.38
54562;BME280;69047;53.358;-1.486;2023-09-30T07:30:14;101423.31;;;12.45;73.78
54562;BME280;69047;53.358;-1.486;2023-09-30T07:32:42;101426.03;;;12.45;73.64
54562;BME280;69047;53.358;-1.486;2023-09-30T07:35:09;101426.94;;;12.51;73.67
54562;BME280;69047;53.358;-1.486;2023-09-30T07:37:34;101432.09;;;12.52;73.60
54562;BME280;69047;53.358;-1.486;2023-09-30T07:39:59;101430.19;;;12.36;74.27
54562;BME280;69047;53.358;-1.486;2023-09-30T07:42:25;101436.72;;;12.52;73.73
54562;BME280;69047;53.358;-1.486;2023-09-30T07:44:50;101429.88;;;12.49;73.70
54562;BME280;69047;53.358;-1.486;2023-09-30T07:47:16;101434.09;;;12.57;73.90
54562;BME280;69047;53.358;-1.486;2023-09-30T07:49:42;101443.50;;;12.66;73.90
54562;BME280;69047;53.358;-1.486;2023-09-30T07:52:07;101442.03;;;12.75;73.66
54562;BME280;69047;53.358;-1.486;2023-09-30T07:54:33;101441.63;;;12.83;73.66
54562;BME280;69047;53.358;-1.486;2023-09-30T07:56:59;101445.00;;;12.90;73.54
54562;BME280;69047;53.358;-1.486;2023-09-30T07:59:25;101450.19;;;12.92;73.72
54562;BME280;69047;53.358;-1.486;2023-09-30T08:01:51;101439.63;;;12.78;75.01
54562;BME280;69047;53.358;-1.486;2023-09-30T08:04:18;101449.41;;;12.96;74.45
54562;BME280;69047;53.358;-1.486;2023-09-30T08:06:43;101459.91;;;13.21;73.81
54562;BME280;69047;53.358;-1.486;2023-09-30T08:09:08;101449.22;;;13.31;73.25
54562;BME280;69047;53.358;-1.486;2023-09-30T08:11:37;101437.50;;;13.30;73.76
54562;BME280;69047;53.358;-1.486;2023-09-30T08:14:05;101423.84;;;13.47;73.05
54562;BME280;69047;53.358;-1.486;2023-09-30T08:16:38;101420.72;;;13.55;72.64
54562;BME280;69047;53.358;-1.486;2023-09-30T08:19:04;101419.13;;;13.21;73.50
54562;BME280;69047;53.358;-1.486;2023-09-30T08:21:30;101419.72;;;13.23;73.81
54562;BME280;69047;53.358;-1.486;2023-09-30T08:23:56;101414.34;;;13.28;74.06
54562;BME280;69047;53.358;-1.486;2023-09-30T08:26:22;101416.88;;;13.35;73.60
54562;BME280;69047;53.358;-1.486;2023-09-30T08:28:47;101430.22;;;13.36;74.11
54562;BME280;69047;53.358;-1.486;2023-09-30T08:31:13;101426.06;;;13.50;73.62
54562;BME280;69047;53.358;-1.486;2023-09-30T08:33:39;101422.47;;;13.66;73.34
54562;BME280;69047;53.358;-1.486;2023-09-30T08:36:06;101421.63;;;13.82;72.22
54562;BME280;69047;53.358;-1.486;2023-09-30T08:38:39;101418.69;;;13.67;73.13
54562;BME280;69047;53.358;-1.486;2023-09-30T08:41:05;101414.38;;;13.93;72.58
54562;BME280;69047;53.358;-1.486;2023-09-30T08:43:37;101412.66;;;14.09;71.48
54562;BME280;69047;53.358;-1.486;2023-09-30T08:46:04;101407.13;;;14.04;71.46
54562;BME280;69047;53.358;-1.486;2023-09-30T08:48:32;101400.56;;;14.00;71.92
54562;BME280;69047;53.358;-1.486;2023-09-30T08:50:59;101404.88;;;13.96;71.86
54562;BME280;69047;53.358;-1.486;2023-09-30T08:53:26;101412.16;;;14.12;71.72
54562;BME280;69047;53.358;-1.486;2023-09-30T08:55:55;101402.59;;;14.09;71.94
54562;BME280;69047;53.358;-1.486;2023-09-30T08:58:26;101405.06;;;13.89;72.17
54562;BME280;69047;53.358;-1.486;2023-09-30T09:00:52;101415.75;;;13.96;72.60
54562;BME280;69047;53.358;-1.486;2023-09-30T09:03:19;101407.69;;;14.27;71.04
54562;BME280;69047;53.358;-1.486;2023-09-30T09:05:45;101411.56;;;14.10;71.46
54562;BME280;69047;53.358;-1.486;2023-09-30T09:08:13;101408.97;;;13.98;71.82
54562;BME280;69047;53.358;-1.486;2023-09-30T09:10:54;101405.03;;;14.11;72.43
54562;BME280;69047;53.358;-1.486;2023-09-30T09:13:21;101402.66;;;14.41;70.73
54562;BME280;69047;53.358;-1.486;2023-09-30T09:15:46;101391.75;;;14.41;70.06
54562;BME280;69047;53.358;-1.486;2023-09-30T09:18:12;101390.88;;;14.62;70.01
54562;BME280;69047;53.358;-1.486;2023-09-30T09:20:39;101399.88;;;14.63;69.36
54562;BME280;69047;53.358;-1.486;2023-09-30T09:23:06;101411.72;;;14.78;69.27
54562;BME280;69047;53.358;-1.486;2023-09-30T09:25:37;101415.75;;;14.71;68.54
54562;BME280;69047;53.358;-1.486;2023-09-30T09:28:03;101415.06;;;14.90;69.17
54562;BME280;69047;53.358;-1.486;2023-09-30T09:30:28;101419.56;;;15.02;69.04
54562;BME280;69047;53.358;-1.486;2023-09-30T09:35:20;101395.38;;;15.20;67.92
54562;BME280;69047;53.358;-1.486;2023-09-30T09:40:37;101436.91;;;15.64;66.70
54562;BME280;69047;53.358;-1.486;2023-09-30T09:43:04;101432.59;;;15.36;66.92
54562;BME280;69047;53.358;-1.486;2023-09-30T09:45:32;101430.84;;;15.62;66.38
54562;BME280;69047;53.358;-1.486;2023-09-30T09:47:58;101431.28;;;15.86;65.88
54562;BME280;69047;53.358;-1.486;2023-09-30T09:50:25;101435.00;;;15.70;65.86
54562;BME280;69047;53.358;-1.486;2023-09-30T09:52:52;101431.28;;;15.96;65.94
54562;BME280;69047;53.358;-1.486;2023-09-30T09:55:21;101429.22;;;16.33;65.22
54562;BME280;69047;53.358;-1.486;2023-09-30T09:57:48;101433.63;;;16.39;63.61
54562;BME280;69047;53.358;-1.486;2023-09-30T10:00:23;101434.44;;;16.45;63.18
54562;BME280;69047;53.358;-1.486;2023-09-30T10:02:50;101418.88;;;16.50;63.15
54562;BME280;69047;53.358;-1.486;2023-09-30T10:05:16;101418.00;;;16.35;64.56
54562;BME280;69047;53.358;-1.486;2023-09-30T10:08:03;101425.03;;;16.05;66.23
54562;BME280;69047;53.358;-1.486;2023-09-30T10:10:31;101420.97;;;16.13;66.00
54562;BME280;69047;53.358;-1.486;2023-09-30T10:13:00;101413.13;;;16.47;64.11
54562;BME280;69047;53.358;-1.486;2023-09-30T10:18:10;101394.22;;;16.30;65.26
54562;BME280;69047;53.358;-1.486;2023-09-30T10:20:41;101398.84;;;16.15;65.26
54562;BME280;69047;53.358;-1.486;2023-09-30T10:25:47;101395.13;;;16.66;62.64
54562;BME280;69047;53.358;-1.486;2023-09-30T10:28:42;101392.38;;;16.86;62.57
54562;BME280;69047;53.358;-1.486;2023-09-30T10:31:18;101388.28;;;16.84;61.73
54562;BME280;69047;53.358;-1.486;2023-09-30T10:36:28;101388.44;;;16.07;65.46
54562;BME280;69047;53.358;-1.486;2023-09-30T10:38:54;101376.44;;;16.23;65.53
54562;BME280;69047;53.358;-1.486;2023-09-30T10:47:00;101369.91;;;16.39;65.52
54562;BME280;69047;53.358;-1.486;2023-09-30T10:51:55;101363.38;;;16.55;64.19
54562;BME280;69047;53.358;-1.486;2023-09-30T10:54:31;101357.63;;;16.41;64.19
54562;BME280;69047;53.358;-1.486;2023-09-30T10:56:58;101361.16;;;16.47;63.42
54562;BME280;69047;53.358;-1.486;2023-09-30T10:59:28;101369.06;;;16.23;64.09
54562;BME280;69047;53.358;-1.486;2023-09-30T11:01:57;101377.84;;;16.30;64.60
54562;BME280;69047;53.358;-1.486;2023-09-30T11:04:23;101368.84;;;16.55;63.48
54562;BME280;69047;53.358;-1.486;2023-09-30T11:06:48;101360.91;;;16.58;63.58
54562;BME280;69047;53.358;-1.486;2023-09-30T11:09:18;101365.56;;;16.68;63.39
54562;BME280;69047;53.358;-1.486;2023-09-30T11:11:51;101365.53;;;16.53;64.42
54562;BME280;69047;53.358;-1.486;2023-09-30T11:14:22;101356.28;;;16.59;63.59
54562;BME280;69047;53.358;-1.486;2023-09-30T11:16:50;101358.19;;;16.64;63.13
54562;BME280;69047;53.358;-1.486;2023-09-30T11:19:16;101360.59;;;16.40;65.17
54562;BME280;69047;53.358;-1.486;2023-09-30T11:21:41;101342.88;;;16.42;63.05
54562;BME280;69047;53.358;-1.486;2023-09-30T11:24:12;101341.47;;;16.50;63.57
54562;BME280;69047;53.358;-1.486;2023-09-30T11:26:37;101334.38;;;16.44;63.59
54562;BME280;69047;53.358;-1.486;2023-09-30T11:29:10;101341.19;;;16.46;63.99
54562;BME280;69047;53.358;-1.486;2023-09-30T11:31:40;101333.84;;;16.67;64.17
54562;BME280;69047;53.358;-1.486;2023-09-30T11:34:06;101324.78;;;16.82;64.26
54562;BME280;69047;53.358;-1.486;2023-09-30T11:36:40;101316.91;;;16.55;63.30
54562;BME280;69047;53.358;-1.486;2023-09-30T11:39:08;101308.94;;;16.74;62.99
54562;BME280;69047;53.358;-1.486;2023-09-30T11:41:39;101308.94;;;16.89;63.68
54562;BME280;69047;53.358;-1.486;2023-09-30T11:44:11;101314.16;;;16.75;64.11
54562;BME280;69047;53.358;-1.486;2023-09-30T11:46:57;101304.00;;;16.86;63.55
54562;BME280;69047;53.358;-1.486;2023-09-30T11:51:57;101304.28;;;16.79;63.14
54562;BME280;69047;53.358;-1.486;2023-09-30T11:54:29;101316.06;;;16.70;64.47
54562;BME280;69047;53.358;-1.486;2023-09-30T11:56:54;101307.88;;;16.65;64.54
54562;BME280;69047;53.358;-1.486;2023-09-30T11:59:19;101316.31;;;16.53;65.54
54562;BME280;69047;53.358;-1.486;2023-09-30T12:01:45;101305.38;;;16.23;65.84
54562;BME280;69047;53.358;-1.486;2023-09-30T12:04:14;101316.34;;;16.58;64.62
54562;BME280;69047;53.358;-1.486;2023-09-30T12:06:40;101309.50;;;16.76;63.86
54562;BME280;69047;53.358;-1.486;2023-09-30T12:09:05;101310.88;;;16.48;65.33
54562;BME280;69047;53.358;-1.486;2023-09-30T12:11:32;101300.75;;;16.48;64.18
54562;BME280;69047;53.358;-1.486;2023-09-30T12:13:58;101287.91;;;16.74;63.99
54562;BME280;69047;53.358;-1.486;2023-09-30T12:16:23;101303.22;;;16.45;65.44
54562;BME280;69047;53.358;-1.486;2023-09-30T12:18:49;101310.84;;;16.43;65.80
54562;BME280;69047;53.358;-1.486;2023-09-30T12:21:15;101305.38;;;16.23;66.74
54562;BME280;69047;53.358;-1.486;2023-09-30T12:23:45;101309.22;;;16.52;65.38
54562;BME280;69047;53.358;-1.486;2023-09-30T12:26:11;101306.22;;;16.53;66.18
54562;BME280;69047;53.358;-1.486;2023-09-30T12:28:37;101290.09;;;16.67;65.85
54562;BME280;69047;53.358;-1.486;2023-09-30T12:31:02;101295.25;;;15.98;68.09
54562;BME280;69047;53.358;-1.486;2023-09-30T12:33:30;101290.63;;;16.44;66.75
54562;BME280;69047;53.358;-1.486;2023-09-30T12:35:56;101297.47;;;16.51;66.47
54562;BME280;69047;53.358;-1.486;2023-09-30T12:38:23;101291.16;;;16.46;67.75
54562;BME280;69047;53.358;-1.486;2023-09-30T12:40:48;101280.78;;;16.68;66.92
54562;BME280;69047;53.358;-1.486;2023-09-30T12:43:14;101283.00;;;16.21;68.62
54562;BME280;69047;53.358;-1.486;2023-09-30T12:45:39;101287.91;;;16.69;67.68
54562;BME280;69047;53.358;-1.486;2023-09-30T12:48:04;101293.38;;;16.74;66.28
54562;BME280;69047;53.358;-1.486;2023-09-30T12:50:30;101285.72;;;16.61;67.42
54562;BME280;69047;53.358;-1.486;2023-09-30T12:52:55;101292.81;;;16.32;68.50
54562;BME280;69047;53.358;-1.486;2023-09-30T12:55:21;101289.81;;;16.53;66.94
54562;BME280;69047;53.358;-1.486;2023-09-30T12:57:46;101287.91;;;16.59;67.56
54562;BME280;69047;53.358;-1.486;2023-09-30T13:00:12;101284.88;;;16.76;67.29
54562;BME280;69047;53.358;-1.486;2023-09-30T13:02:40;101286.28;;;16.68;68.12